Aviation Digital Data Service (ADDS)

Output produced by TAFs form (0050 UTC 23 November 2014)
found at http://www.aviationweather.gov/adds/tafs/
 
KPOU 222346Z 2300/2324 22008KT P6SM OVC035 
     FM230300 21006KT P6SM VCSH OVC030 
     FM230800 VRB03KT P6SM SCT030 OVC060 
     FM231500 22004KT P6SM BKN060 
     FM231900 20005KT P6SM SCT060 SCT150